Time;durP1;ratioP1;P1;durP2;ratioP2;P2;SDS_P1;SDS_P2;PMS_P1;PMS_P2;Temp;Humidity;BMP_temperature;BMP_pressure;BME280_temperature;BME280_humidity;BME280_pressure;Samples;Min_cycle;Max_cycle;Signal;HPM_P1;HPM_P2
2022/11/09 00:01:19;;;;;;;10.82;7.68;;;;;;;12.07;100.00;96113.84;5101867;28;20090;-45
2022/11/09 00:03:48;;;;;;;14.00;9.30;;;;;;;12.36;100.00;96120.50;5099142;28;20075;-42
2022/11/09 00:06:17;;;;;;;11.90;8.10;;;;;;;12.23;100.00;96123.63;5096514;28;20059;-42
2022/11/09 00:08:45;;;;;;;10.63;8.10;;;;;;;12.31;100.00;96112.22;5099771;28;20489;-44
2022/11/09 00:11:13;;;;;;;12.52;8.30;;;;;;;12.33;100.00;96110.25;5100482;28;20090;-47
2022/11/09 00:13:46;;;;;;;10.00;6.72;;;;;;;12.17;100.00;96115.50;5099190;28;20075;-43
2022/11/09 00:16:16;;;;;;;7.38;5.95;;;;;;;11.92;100.00;96122.56;5101190;28;20080;-44
2022/11/09 00:18:46;;;;;;;8.75;7.03;;;;;;;12.05;100.00;96123.75;5099856;28;20084;-47
2022/11/09 00:21:18;;;;;;;9.00;7.28;;;;;;;12.13;100.00;96125.59;5100731;28;20079;-45
2022/11/09 00:23:46;;;;;;;8.80;6.88;;;;;;;12.07;100.00;96120.94;5098903;28;20078;-42
2022/11/09 00:26:16;;;;;;;8.98;7.18;;;;;;;12.13;100.00;96119.47;5097207;28;20091;-47
2022/11/09 00:28:45;;;;;;;8.35;6.50;;;;;;;12.08;100.00;96122.63;5102381;28;20068;-45
2022/11/09 00:31:14;;;;;;;8.68;6.53;;;;;;;12.17;100.00;96126.09;5104245;28;20063;-49
2022/11/09 00:33:43;;;;;;;11.10;6.97;;;;;;;11.76;100.00;96121.47;5097417;28;20074;-42
2022/11/09 00:36:12;;;;;;;10.05;7.10;;;;;;;12.02;100.00;96121.44;5085291;28;20090;-46
2022/11/09 00:38:42;;;;;;;7.88;6.40;;;;;;;11.96;100.00;96118.59;5099409;28;20075;-41
2022/11/09 00:41:11;;;;;;;10.40;6.38;;;;;;;12.05;100.00;96115.84;5096929;28;20082;-44
2022/11/09 00:43:39;;;;;;;7.35;6.43;;;;;;;11.93;100.00;96114.47;5094691;28;20520;-45
2022/11/09 00:46:08;;;;;;;7.53;6.72;;;;;;;12.02;100.00;96117.97;5101107;28;20491;-43
2022/11/09 00:48:37;;;;;;;7.28;6.45;;;;;;;11.87;100.00;96110.69;5100986;28;20120;-43
2022/11/09 00:51:05;;;;;;;9.10;7.38;;;;;;;11.96;100.00;96114.16;5100464;28;20083;-47
2022/11/09 00:53:34;;;;;;;9.38;7.43;;;;;;;12.03;100.00;96114.34;5082396;28;20063;-44
2022/11/09 00:56:05;;;;;;;9.35;7.30;;;;;;;12.00;100.00;96114.66;5098958;28;20071;-43
2022/11/09 00:58:35;;;;;;;9.85;7.40;;;;;;;10.79;100.00;96114.72;5101928;28;20480;-47
2022/11/09 01:01:07;;;;;;;12.77;7.53;;;;;;;10.40;100.00;96117.75;5097925;28;20090;-44
2022/11/09 01:03:35;;;;;;;7.68;6.20;;;;;;;9.63;100.00;96116.44;5082599;28;20967;-43
2022/11/09 01:06:05;;;;;;;7.60;6.40;;;;;;;10.03;100.00;96119.66;5094579;28;20060;-46
2022/11/09 01:08:34;;;;;;;9.90;6.03;;;;;;;11.19;100.00;96113.34;5096167;28;20430;-45
2022/11/09 01:11:07;;;;;;;7.47;5.90;;;;;;;11.58;100.00;96111.03;5101514;28;20461;-44
2022/11/09 01:13:36;;;;;;;10.70;7.00;;;;;;;11.59;100.00;96115.31;5098828;28;20094;-44
2022/11/09 01:16:06;;;;;;;8.23;6.65;;;;;;;11.61;100.00;96115.19;5096971;28;20469;-46
2022/11/09 01:18:34;;;;;;;8.02;5.93;;;;;;;11.42;100.00;96108.31;5098334;28;20071;-43
2022/11/09 01:21:06;;;;;;;7.70;5.72;;;;;;;11.70;100.00;96102.81;5094950;28;20461;-44
2022/11/09 01:23:35;;;;;;;8.63;5.90;;;;;;;11.72;100.00;96095.56;5095849;28;20078;-45
2022/11/09 01:26:07;;;;;;;6.75;5.53;;;;;;;11.78;100.00;96100.22;5092338;28;20079;-46
2022/11/09 01:28:35;;;;;;;10.02;6.22;;;;;;;11.58;100.00;96094.34;5094870;28;20063;-42
2022/11/09 01:31:05;;;;;;;7.88;6.47;;;;;;;11.67;100.00;96103.16;5095155;28;20087;-44
2022/11/09 01:33:34;;;;;;;9.68;6.65;;;;;;;11.71;100.00;96099.19;5096143;28;20467;-44
2022/11/09 01:36:03;;;;;;;8.45;6.75;;;;;;;11.51;100.00;96109.19;5100093;28;20059;-47
2022/11/09 01:38:32;;;;;;;7.72;6.35;;;;;;;11.48;100.00;96099.75;5097597;28;20553;-44
2022/11/09 01:41:00;;;;;;;7.70;6.30;;;;;;;11.28;100.00;96095.72;5091931;28;20513;-50
2022/11/09 01:43:30;;;;;;;9.50;6.18;;;;;;;10.93;100.00;96094.88;5101036;28;20078;-44
2022/11/09 01:46:01;;;;;;;9.07;6.55;;;;;;;11.51;100.00;96096.81;5095578;28;20135;-47
2022/11/09 01:48:36;;;;;;;7.50;5.70;;;;;;;11.41;100.00;96104.84;5098372;28;20067;-45
2022/11/09 01:51:08;;;;;;;7.47;5.55;;;;;;;11.24;100.00;96103.13;5097742;28;20379;-46
2022/11/09 01:53:41;;;;;;;7.00;5.20;;;;;;;10.69;100.00;96109.53;5098174;28;20075;-42
2022/11/09 01:56:12;;;;;;;5.32;4.78;;;;;;;10.98;100.00;96107.59;5097118;28;20518;-44
2022/11/09 01:58:45;;;;;;;6.50;4.70;;;;;;;10.42;100.00;96112.31;5100564;28;20071;-42
2022/11/09 02:01:14;;;;;;;4.93;4.43;;;;;;;10.71;100.00;96106.78;5094242;28;20076;-45
2022/11/09 02:03:45;;;;;;;5.10;4.60;;;;;;;11.10;100.00;96099.25;5096261;28;20059;-44
2022/11/09 02:06:16;;;;;;;5.20;4.70;;;;;;;10.73;100.00;96106.59;5093968;28;20076;-46
2022/11/09 02:08:45;;;;;;;5.55;5.00;;;;;;;11.03;100.00;96094.78;5091716;28;20091;-43
2022/11/09 02:11:14;;;;;;;6.97;6.22;;;;;;;11.25;100.00;96096.88;5097001;28;20457;-47
2022/11/09 02:13:47;;;;;;;10.77;6.07;;;;;;;11.32;100.00;96095.25;5097224;28;20544;-44
2022/11/09 02:16:15;;;;;;;8.70;6.70;;;;;;;11.37;100.00;96086.84;5099469;28;20454;-47
2022/11/09 02:18:51;;;;;;;8.98;7.00;;;;;;;11.49;100.00;96084.75;5101605;28;20517;-44
2022/11/09 02:21:23;;;;;;;8.38;6.38;;;;;;;11.53;100.00;96089.56;5099563;28;20552;-45
2022/11/09 02:23:51;;;;;;;9.50;7.25;;;;;;;11.47;100.00;96089.38;5097395;28;20075;-43
2022/11/09 02:26:25;;;;;;;8.65;6.47;;;;;;;11.57;100.00;96075.06;5090479;28;20081;-42
2022/11/09 02:28:54;;;;;;;7.57;6.78;;;;;;;11.56;100.00;96083.13;5095686;28;20520;-42
2022/11/09 02:31:26;;;;;;;10.03;6.87;;;;;;;11.55;100.00;96084.13;5102280;28;20078;-44
2022/11/09 02:33:55;;;;;;;9.25;6.88;;;;;;;11.58;100.00;96087.25;5096431;28;20080;-44
2022/11/09 02:36:25;;;;;;;11.05;7.07;;;;;;;11.69;100.00;96093.25;5091733;28;20086;-47
2022/11/09 02:38:54;;;;;;;6.35;5.50;;;;;;;11.60;100.00;96092.41;5097830;28;20084;-44
2022/11/09 02:41:24;;;;;;;6.57;5.40;;;;;;;11.45;100.00;96086.88;5095686;28;20595;-43
2022/11/09 02:43:53;;;;;;;9.20;6.63;;;;;;;11.23;100.00;96090.91;5100755;28;20076;-42
2022/11/09 02:46:26;;;;;;;9.60;6.47;;;;;;;11.31;100.00;96085.66;5097739;28;20094;-43
2022/11/09 02:48:54;;;;;;;8.00;6.30;;;;;;;11.25;100.00;96088.97;5099809;28;20470;-45
2022/11/09 02:51:23;;;;;;;7.50;6.40;;;;;;;10.78;100.00;96089.34;5078884;28;20079;-46
2022/11/09 02:53:52;;;;;;;6.65;5.72;;;;;;;11.05;100.00;96090.19;5099279;28;20111;-46
2022/11/09 02:56:21;;;;;;;7.72;6.07;;;;;;;11.13;100.00;96085.75;5097921;28;20106;-44
2022/11/09 02:58:49;;;;;;;8.52;6.20;;;;;;;11.18;100.00;96087.91;5100200;28;20467;-50
2022/11/09 03:01:18;;;;;;;7.63;5.93;;;;;;;10.99;100.00;96083.69;5101512;28;20071;-46
2022/11/09 03:03:46;;;;;;;6.32;5.70;;;;;;;11.10;100.00;96091.34;5099901;28;20075;-43
2022/11/09 03:06:14;;;;;;;7.10;5.68;;;;;;;10.78;100.00;96099.06;5096048;28;20091;-43
2022/11/09 03:08:43;;;;;;;5.13;4.63;;;;;;;10.58;100.00;96106.34;5096488;28;20466;-41
2022/11/09 03:11:12;;;;;;;7.10;4.72;;;;;;;10.65;100.00;96089.75;5097842;28;20079;-46
2022/11/09 03:13:41;;;;;;;5.70;5.13;;;;;;;10.78;100.00;96099.91;5095356;28;20083;-43
2022/11/09 03:16:10;;;;;;;7.05;5.13;;;;;;;10.43;100.00;96104.25;5081696;28;20071;-43
2022/11/09 03:18:38;;;;;;;6.13;5.50;;;;;;;10.79;100.00;96092.81;5099864;28;20517;-42
2022/11/09 03:21:07;;;;;;;6.18;5.30;;;;;;;10.97;100.00;96090.13;5095973;28;20732;-47
2022/11/09 03:23:35;;;;;;;5.70;5.15;;;;;;;10.06;100.00;96103.56;5092193;28;20070;-51
2022/11/09 03:26:03;;;;;;;5.90;5.28;;;;;;;10.24;100.00;96099.09;5098094;28;20090;-43
2022/11/09 03:28:33;;;;;;;5.65;4.95;;;;;;;9.32;100.00;96102.72;5089841;28;20060;-44
2022/11/09 03:31:01;;;;;;;5.00;4.60;;;;;;;10.07;100.00;96100.75;5093361;28;20532;-44
2022/11/09 03:33:30;;;;;;;7.20;4.90;;;;;;;10.22;100.00;96101.91;5097686;28;20086;-52
2022/11/09 03:35:58;;;;;;;6.47;5.45;;;;;;;10.59;100.00;96100.06;5095442;28;20074;-44
2022/11/09 03:38:26;;;;;;;6.60;5.40;;;;;;;10.25;100.00;96105.19;5096468;28;20071;-42
2022/11/09 03:40:55;;;;;;;5.25;4.70;;;;;;;10.66;100.00;96101.94;5094779;28;20608;-43
2022/11/09 03:43:23;;;;;;;6.05;5.13;;;;;;;10.72;100.00;96097.88;5096203;28;20071;-43
2022/11/09 03:45:53;;;;;;;6.22;5.32;;;;;;;10.89;100.00;96097.00;5095712;28;20086;-42
2022/11/09 03:48:22;;;;;;;6.47;5.20;;;;;;;10.67;100.00;96094.88;5098077;28;20087;-43
2022/11/09 03:50:50;;;;;;;6.00;5.40;;;;;;;10.84;100.00;96095.78;5096939;28;20077;-42
2022/11/09 03:53:19;;;;;;;5.93;5.05;;;;;;;10.51;100.00;96100.84;5100093;28;20113;-47
2022/11/09 03:55:48;;;;;;;5.85;4.93;;;;;;;10.80;100.00;96099.72;5096267;28;20087;-43
2022/11/09 03:58:16;;;;;;;6.32;5.70;;;;;;;10.94;100.00;96101.78;5097656;28;20481;-42
2022/11/09 04:00:44;;;;;;;5.70;5.00;;;;;;;9.87;100.00;96096.59;5101504;28;20466;-42
2022/11/09 04:03:14;;;;;;;7.47;5.40;;;;;;;9.04;100.00;96104.50;5095825;28;20790;-42
2022/11/09 04:05:42;;;;;;;6.60;5.27;;;;;;;10.48;100.00;96106.41;5098636;28;20079;-48
2022/11/09 04:08:10;;;;;;;5.97;5.35;;;;;;;10.69;100.00;96100.81;5098618;28;20490;-42
2022/11/09 04:10:39;;;;;;;10.00;4.97;;;;;;;10.67;100.00;96097.53;5097729;28;20086;-42
2022/11/09 04:13:07;;;;;;;7.25;5.60;;;;;;;10.55;100.00;96096.09;5100977;28;20071;-42
2022/11/09 04:15:36;;;;;;;6.40;5.30;;;;;;;10.85;100.00;96092.19;5100336;28;20067;-44
2022/11/09 04:18:04;;;;;;;6.00;4.70;;;;;;;10.90;100.00;96090.72;5099642;28;20079;-42
2022/11/09 04:20:34;;;;;;;5.68;5.07;;;;;;;10.62;100.00;96087.41;5103557;28;20091;-41
2022/11/09 04:23:04;;;;;;;5.88;4.90;;;;;;;10.95;100.00;96094.72;5101239;28;20067;-42
2022/11/09 04:25:34;;;;;;;5.93;5.32;;;;;;;10.85;100.00;96093.03;5093474;28;20079;-49
2022/11/09 04:28:04;;;;;;;6.20;5.43;;;;;;;10.61;100.00;96092.84;5077916;28;20138;-44
2022/11/09 04:30:34;;;;;;;5.40;4.90;;;;;;;10.78;100.00;96093.81;5103538;28;20075;-42
2022/11/09 04:33:03;;;;;;;5.40;4.90;;;;;;;10.81;100.00;96096.94;5097485;28;20071;-46
2022/11/09 04:35:34;;;;;;;5.70;5.10;;;;;;;10.84;100.00;96086.09;5097687;28;20082;-44
2022/11/09 04:38:04;;;;;;;;;;;;;;;9.95;100.00;96094.06;5095618;28;20086;-41
2022/11/09 04:40:34;;;;;;;6.20;5.25;;;;;;;9.70;100.00;96104.34;5102297;28;20373;-42
2022/11/09 04:43:04;;;;;;;6.80;5.30;;;;;;;9.72;100.00;96102.38;5101723;28;20085;-42
2022/11/09 04:45:33;;;;;;;8.93;5.60;;;;;;;10.50;100.00;96104.47;5096676;28;20079;-41
2022/11/09 04:48:03;;;;;;;7.35;5.63;;;;;;;10.05;100.00;96102.75;5094623;28;20080;-45
2022/11/09 04:50:32;;;;;;;8.88;5.72;;;;;;;10.30;100.00;96105.63;5099842;28;20071;-47
2022/11/09 04:53:09;;;;;;;7.22;6.10;;;;;;;10.51;100.00;96100.03;5096507;28;20083;-44
2022/11/09 04:55:38;;;;;;;12.38;6.00;;;;;;;10.35;100.00;96109.44;5097977;28;20475;-47
2022/11/09 04:58:07;;;;;;;9.57;6.03;;;;;;;10.31;100.00;96104.63;5097885;28;20074;-41
2022/11/09 05:00:36;;;;;;;8.05;6.50;;;;;;;10.14;100.00;96101.00;5098925;28;20063;-42
2022/11/09 05:03:05;;;;;;;10.93;6.03;;;;;;;10.65;100.00;96110.03;5097854;28;20600;-45
2022/11/09 05:05:34;;;;;;;13.37;6.30;;;;;;;10.77;100.00;96108.81;5093955;28;20079;-46
2022/11/09 05:08:04;;;;;;;6.95;6.18;;;;;;;10.78;100.00;96107.81;5099123;28;21252;-42
2022/11/09 05:10:34;;;;;;;7.13;5.05;;;;;;;10.79;100.00;96106.00;5096785;28;20083;-45
2022/11/09 05:13:04;;;;;;;8.05;5.60;;;;;;;10.21;100.00;96110.78;5097691;28;20097;-44
2022/11/09 05:15:33;;;;;;;7.25;6.07;;;;;;;9.96;100.00;96115.00;5095028;28;20088;-45
2022/11/09 05:18:02;;;;;;;11.02;6.40;;;;;;;10.28;100.00;96112.84;5098794;28;20284;-44
2022/11/09 05:20:30;;;;;;;9.82;6.90;;;;;;;10.60;100.00;96102.56;5102974;28;20082;-42
2022/11/09 05:25:47;;;;;;;7.65;5.75;;;;;;;10.70;100.00;96115.66;5096750;28;20083;-47
2022/11/09 05:28:15;;;;;;;6.40;5.80;;;;;;;10.76;100.00;96111.56;5097122;28;20493;-48
2022/11/09 05:30:44;;;;;;;11.02;6.25;;;;;;;10.56;100.00;96113.56;5101618;28;20485;-46
2022/11/09 05:33:13;;;;;;;8.13;6.05;;;;;;;10.56;100.00;96111.75;5103683;28;20079;-43
2022/11/09 05:35:41;;;;;;;11.88;5.93;;;;;;;10.03;100.00;96115.22;5103133;28;20079;-42
2022/11/09 05:38:09;;;;;;;7.45;6.38;;;;;;;9.44;100.00;96116.53;5089585;28;20086;-45
2022/11/09 05:40:38;;;;;;;8.55;5.70;;;;;;;9.16;100.00;96108.63;5101670;28;20474;-42
2022/11/09 05:43:07;;;;;;;9.15;6.40;;;;;;;8.33;100.00;96105.75;5097211;28;20517;-46
2022/11/09 05:45:36;;;;;;;8.27;6.17;;;;;;;9.18;100.00;96101.41;5089884;28;20083;-45
2022/11/09 05:48:13;;;;;;;8.13;6.40;;;;;;;9.46;100.00;96109.31;5101111;28;20530;-45
2022/11/09 05:50:42;;;;;;;8.60;7.07;;;;;;;10.48;100.00;96097.69;5089653;28;20075;-44
2022/11/09 05:53:11;;;;;;;8.55;6.18;;;;;;;10.63;100.00;96098.78;5095276;28;20088;-41
2022/11/09 05:55:39;;;;;;;7.88;5.60;;;;;;;10.61;100.00;96100.75;5093603;28;20083;-45
2022/11/09 05:58:09;;;;;;;7.13;5.82;;;;;;;10.75;100.00;96096.75;5104177;28;20079;-48
2022/11/09 06:00:38;;;;;;;7.25;5.30;;;;;;;10.61;100.00;96108.69;5103653;28;20495;-44
2022/11/09 06:03:07;;;;;;;7.93;6.10;;;;;;;10.77;100.00;96113.22;5096722;28;20083;-42
2022/11/09 06:05:36;;;;;;;8.18;5.78;;;;;;;10.73;100.00;96119.78;5104033;28;20086;-42
2022/11/09 06:08:05;;;;;;;6.82;5.75;;;;;;;10.80;100.00;96115.56;5091198;28;20094;-42
2022/11/09 06:10:33;;;;;;;7.97;5.95;;;;;;;10.91;100.00;96115.31;5093584;28;20080;-44
2022/11/09 06:13:02;;;;;;;8.68;6.35;;;;;;;11.02;100.00;96111.59;5099223;28;20528;-42
2022/11/09 06:15:32;;;;;;;7.28;6.30;;;;;;;11.15;100.00;96112.00;5100173;28;20076;-47
2022/11/09 06:18:00;;;;;;;7.70;6.28;;;;;;;11.13;100.00;96116.59;5095229;28;20103;-42
2022/11/09 06:20:28;;;;;;;7.20;6.22;;;;;;;11.35;100.00;96123.13;5100064;28;20083;-47
2022/11/09 06:22:58;;;;;;;8.05;6.30;;;;;;;11.53;100.00;96136.28;5095478;28;20083;-45
2022/11/09 06:25:32;;;;;;;8.60;6.40;;;;;;;11.58;100.00;96137.44;5096198;28;20130;-47
2022/11/09 06:28:01;;;;;;;8.80;6.38;;;;;;;11.56;100.00;96139.44;5089619;28;20090;-46
2022/11/09 06:30:29;;;;;;;7.35;6.32;;;;;;;11.11;100.00;96153.72;5094288;28;20079;-49
2022/11/09 06:33:00;;;;;;;5.40;4.90;;;;;;;10.11;100.00;96175.06;5097903;28;20451;-43
2022/11/09 06:35:28;;;;;;;10.50;5.90;;;;;;;10.53;100.00;96170.09;5103962;28;20071;-42
2022/11/09 06:37:57;;;;;;;6.90;6.20;;;;;;;10.87;100.00;96170.19;5089083;28;20095;-46
2022/11/09 06:40:26;;;;;;;9.32;6.30;;;;;;;11.33;100.00;96165.53;5093364;28;20082;-46
2022/11/09 06:42:56;;;;;;;7.45;6.15;;;;;;;11.73;100.00;96165.88;5108216;28;20071;-43
2022/11/09 06:45:25;;;;;;;7.35;6.20;;;;;;;11.95;100.00;96169.81;5090086;28;20525;-43
2022/11/09 06:47:55;;;;;;;8.27;6.65;;;;;;;11.81;100.00;96187.06;5093832;28;20086;-42
2022/11/09 06:50:25;;;;;;;8.65;6.53;;;;;;;11.78;100.00;96192.66;5096430;28;20086;-47
2022/11/09 06:52:56;;;;;;;7.97;6.05;;;;;;;11.62;100.00;96210.06;5088974;28;20080;-45
2022/11/09 06:55:25;;;;;;;8.07;6.13;;;;;;;11.08;100.00;96238.47;5101725;28;20071;-51
2022/11/09 06:57:53;;;;;;;7.07;5.63;;;;;;;10.93;100.00;96246.06;5095540;28;20110;-45
2022/11/09 07:00:22;;;;;;;8.45;5.75;;;;;;;10.98;100.00;96236.88;5088401;28;20084;-48
2022/11/09 07:02:50;;;;;;;6.60;5.57;;;;;;;11.02;100.00;96244.34;5102713;28;20470;-45
2022/11/09 07:05:19;;;;;;;7.55;5.40;;;;;;;11.17;100.00;96255.16;5097508;28;20080;-42
2022/11/09 07:07:49;;;;;;;6.70;5.60;;;;;;;11.27;100.00;96255.09;5093732;28;20076;-44
2022/11/09 07:10:18;;;;;;;7.18;5.45;;;;;;;11.68;100.00;96247.44;5102517;28;20071;-49
2022/11/09 07:12:46;;;;;;;7.63;5.80;;;;;;;12.15;100.00;96239.94;5091160;28;20079;-44
2022/11/09 07:15:15;;;;;;;7.15;5.30;;;;;;;12.73;100.00;96240.88;5106032;28;20552;-46
2022/11/09 07:17:43;;;;;;;6.47;5.45;;;;;;;12.83;100.00;96233.63;5093041;28;20465;-46
2022/11/09 07:20:13;;;;;;;5.95;5.00;;;;;;;13.10;100.00;96239.59;5093202;28;20076;-46
2022/11/09 07:22:41;;;;;;;8.35;5.60;;;;;;;13.17;100.00;96244.03;5106773;28;20094;-44
2022/11/09 07:25:12;;;;;;;8.10;5.20;;;;;;;13.38;100.00;96238.28;5099002;28;20112;-42
2022/11/09 07:27:40;;;;;;;6.65;5.45;;;;;;;13.40;100.00;96235.47;5106060;28;20087;-48
2022/11/09 07:30:10;;;;;;;6.60;5.30;;;;;;;13.07;100.00;96241.59;5098953;28;20083;-44
2022/11/09 07:32:39;;;;;;;8.82;6.07;;;;;;;13.06;100.00;96239.09;5101073;28;20086;-44
2022/11/09 07:35:27;;;;;;;7.55;5.40;;;;;;;13.20;100.00;96241.06;5103492;28;20486;-49
2022/11/09 07:38:00;;;;;;;8.68;6.10;;;;;;;12.84;100.00;96240.59;5096475;28;20083;-46
2022/11/09 07:40:31;;;;;;;7.75;5.65;;;;;;;12.43;100.00;96239.69;5106804;28;20572;-47
2022/11/09 07:42:59;;;;;;;7.33;6.33;;;;;;;12.73;100.00;96235.59;5097482;28;20094;-47
2022/11/09 07:45:28;;;;;;;8.18;6.50;;;;;;;12.72;100.00;96231.28;5098351;28;20071;-44
2022/11/09 07:47:57;;;;;;;7.82;6.43;;;;;;;12.32;100.00;96228.41;5105841;28;20115;-44
2022/11/09 07:50:26;;;;;;;7.63;5.53;;;;;;;11.68;100.00;96234.22;5098959;28;20083;-42
2022/11/09 07:52:54;;;;;;;5.60;5.10;;;;;;;11.70;100.00;96235.72;5102891;28;20094;-47
2022/11/09 07:55:23;;;;;;;6.35;5.28;;;;;;;12.07;100.00;96231.94;5091993;28;20106;-43
2022/11/09 07:57:56;;;;;;;7.30;5.63;;;;;;;12.40;100.00;96238.19;5094473;28;20083;-42
2022/11/09 08:00:25;;;;;;;5.93;5.32;;;;;;;12.33;100.00;96234.53;5103684;28;20087;-44
2022/11/09 08:02:54;;;;;;;5.38;4.88;;;;;;;12.70;100.00;96228.81;5104351;28;20557;-45
2022/11/09 08:05:22;;;;;;;6.88;4.60;;;;;;;12.91;100.00;96238.94;5096181;28;20072;-42
2022/11/09 08:07:54;;;;;;;4.82;4.30;;;;;;;13.39;100.00;96232.00;5095717;28;20139;-46
2022/11/09 08:10:23;;;;;;;8.90;4.38;;;;;;;13.33;100.00;96231.84;5104964;28;20089;-50
2022/11/09 08:12:57;;;;;;;6.60;3.90;;;;;;;13.46;100.00;96245.41;5105812;28;20533;-45
2022/11/09 08:15:26;;;;;;;6.90;3.90;;;;;;;13.92;100.00;96240.31;5097874;28;20467;-43
2022/11/09 08:17:54;;;;;;;6.57;3.80;;;;;;;14.17;100.00;96238.38;5098697;28;20080;-43
2022/11/09 08:20:22;;;;;;;6.00;3.72;;;;;;;14.31;100.00;96240.31;5098306;28;20079;-44
2022/11/09 08:22:51;;;;;;;5.88;3.90;;;;;;;14.08;100.00;96245.56;5104402;28;20080;-43
2022/11/09 08:25:19;;;;;;;6.00;3.78;;;;;;;14.61;100.00;96251.13;5098168;28;20091;-42
2022/11/09 08:27:48;;;;;;;4.40;3.50;;;;;;;14.80;100.00;96248.06;5090763;28;20092;-42
2022/11/09 08:30:20;;;;;;;7.00;3.72;;;;;;;15.13;100.00;96250.44;5093642;28;20059;-43
2022/11/09 08:32:49;;;;;;;5.32;3.60;;;;;;;15.26;100.00;96255.16;5097893;28;20083;-49
2022/11/09 08:35:20;;;;;;;5.53;3.28;;;;;;;15.55;100.00;96260.53;5097445;28;20451;-47
2022/11/09 08:37:51;;;;;;;6.10;3.50;;;;;;;15.85;100.00;96250.81;5110545;28;20723;-47
2022/11/09 08:40:21;;;;;;;4.00;3.30;;;;;;;16.05;98.21;96252.94;5092402;28;20092;-44
2022/11/09 08:42:50;;;;;;;4.60;3.30;;;;;;;16.30;94.95;96243.63;5109041;28;20514;-47
2022/11/09 08:45:20;;;;;;;5.57;2.88;;;;;;;16.52;89.81;96255.19;5092072;28;20080;-44
2022/11/09 08:47:48;;;;;;;5.90;3.03;;;;;;;16.71;85.86;96252.94;5103264;28;20483;-48
2022/11/09 08:50:17;;;;;;;7.95;4.30;;;;;;;16.37;89.50;96246.38;5104094;28;20091;-44
2022/11/09 08:52:45;;;;;;;4.22;3.10;;;;;;;16.58;92.81;96250.94;5099500;28;20086;-47
2022/11/09 08:55:13;;;;;;;6.75;3.60;;;;;;;16.76;86.56;96251.38;5104483;28;20087;-49
2022/11/09 08:57:42;;;;;;;7.80;3.58;;;;;;;17.05;83.64;96249.63;5099534;28;20071;-46
2022/11/09 09:00:11;;;;;;;3.70;3.00;;;;;;;17.04;80.32;96254.13;5103806;28;20094;-44
2022/11/09 09:02:41;;;;;;;4.38;3.10;;;;;;;16.79;83.43;96258.16;5096646;28;20478;-42
2022/11/09 09:05:09;;;;;;;5.30;3.00;;;;;;;17.50;74.17;96255.56;5098088;28;20090;-53
2022/11/09 09:07:38;;;;;;;8.18;3.17;;;;;;;17.53;73.58;96256.00;5106275;28;20490;-43
2022/11/09 09:10:06;;;;;;;5.05;3.03;;;;;;;17.26;75.85;96260.28;5090595;28;20087;-48
2022/11/09 09:12:35;;;;;;;5.22;3.20;;;;;;;17.67;76.45;96272.09;5101391;28;20082;-49
2022/11/09 09:15:04;;;;;;;4.75;3.22;;;;;;;17.81;76.68;96270.38;5097393;28;20079;-43
2022/11/09 09:17:34;;;;;;;6.97;2.80;;;;;;;17.68;77.25;96273.75;5097763;28;20083;-44
2022/11/09 09:20:04;;;;;;;5.25;2.95;;;;;;;17.90;80.24;96267.38;5095835;28;20162;-43
2022/11/09 09:22:33;;;;;;;5.75;2.88;;;;;;;18.09;77.58;96279.19;5103446;28;20075;-45
2022/11/09 09:25:02;;;;;;;7.65;3.03;;;;;;;18.41;74.44;96266.22;5098161;28;20584;-50
2022/11/09 09:27:30;;;;;;;5.47;2.95;;;;;;;17.85;80.37;96282.31;5102013;28;20087;-46
2022/11/09 09:29:58;;;;;;;3.53;2.50;;;;;;;17.88;78.25;96284.59;5098158;28;20450;-47
2022/11/09 09:32:28;;;;;;;5.65;2.70;;;;;;;18.83;69.83;96278.53;5102237;28;20083;-48
2022/11/09 09:34:57;;;;;;;4.65;2.92;;;;;;;18.91;69.53;96277.53;5102133;28;20087;-48
2022/11/09 09:37:26;;;;;;;5.53;2.80;;;;;;;19.14;69.28;96277.19;5105345;28;20759;-44
2022/11/09 09:39:55;;;;;;;6.33;2.60;;;;;;;19.08;68.69;96278.00;5095776;28;20471;-50
2022/11/09 09:42:29;;;;;;;6.00;2.75;;;;;;;19.38;67.15;96273.94;5100964;28;20521;-46
2022/11/09 09:45:01;;;;;;;4.30;2.80;;;;;;;19.44;67.16;96278.47;5099714;28;20087;-43
2022/11/09 09:47:38;;;;;;;4.75;3.08;;;;;;;19.40;65.05;96279.88;5096394;28;20094;-49
2022/11/09 09:50:11;;;;;;;7.15;2.80;;;;;;;19.49;68.76;96277.03;5095037;28;20090;-43
2022/11/09 09:52:45;;;;;;;8.68;3.20;;;;;;;19.52;67.18;96274.75;5103553;28;20098;-44
2022/11/09 09:55:36;;;;;;;9.13;2.90;;;;;;;19.27;69.46;96277.22;5090629;28;20075;-51
2022/11/09 09:58:11;;;;;;;4.90;2.63;;;;;;;17.86;86.95;96275.94;5101025;28;20102;-45
2022/11/09 10:00:39;;;;;;;4.47;2.60;;;;;;;18.47;81.54;96271.59;5108229;28;20220;-46
2022/11/09 10:03:14;;;;;;;4.50;2.58;;;;;;;18.21;89.17;96269.63;5102791;28;20079;-49
2022/11/09 10:05:46;;;;;;;3.35;2.55;;;;;;;17.95;94.93;96264.94;5105495;28;20086;-44
2022/11/09 10:08:23;;;;;;;5.90;2.88;;;;;;;18.98;84.93;96271.19;5102676;28;20079;-48
2022/11/09 10:11:01;;;;;;;4.70;2.58;;;;;;;19.39;80.58;96270.22;5094051;28;20068;-42
2022/11/09 10:13:45;;;;;;;4.15;2.70;;;;;;;20.00;74.87;96255.00;5103424;28;20075;-46
2022/11/09 10:16:21;;;;;;;5.53;2.70;;;;;;;19.84;70.08;96262.44;5099826;28;20479;-47
2022/11/09 10:19:04;;;;;;;5.95;3.60;;;;;;;19.76;73.96;96269.84;5089275;28;20091;-43
2022/11/09 10:21:38;;;;;;;4.78;2.50;;;;;;;20.34;63.18;96260.06;5095950;28;20083;-47
2022/11/09 10:24:15;;;;;;;4.53;2.42;;;;;;;21.30;57.70;96261.91;5090129;28;20084;-45
2022/11/09 10:26:47;;;;;;;4.88;2.47;;;;;;;20.89;60.85;96262.34;5089511;28;20079;-46
2022/11/09 10:29:23;;;;;;;5.43;2.25;;;;;;;20.79;62.88;96257.44;5096227;28;20086;-49
2022/11/09 10:31:53;;;;;;;4.07;2.50;;;;;;;20.12;67.70;96259.50;5101859;28;20462;-46
2022/11/09 10:34:27;;;;;;;4.35;2.80;;;;;;;21.13;58.94;96255.41;5097661;28;20087;-50
2022/11/09 10:37:01;;;;;;;7.50;2.75;;;;;;;21.43;56.89;96262.84;5100539;28;20086;-47
2022/11/09 10:39:39;;;;;;;5.95;2.15;;;;;;;21.88;55.16;96254.63;5109181;28;20094;-49
2022/11/09 10:42:10;;;;;;;4.55;2.50;;;;;;;21.72;52.00;96256.03;5091573;28;20071;-50
2022/11/09 10:44:39;;;;;;;4.80;2.35;;;;;;;22.08;50.46;96244.53;5093393;28;20091;-49
2022/11/09 10:47:10;;;;;;;3.83;2.08;;;;;;;22.01;48.19;96239.22;5099511;28;20087;-45
2022/11/09 10:49:39;;;;;;;5.60;2.22;;;;;;;21.71;48.95;96239.13;5097638;28;20683;-44
2022/11/09 10:52:30;;;;;;;5.43;2.27;;;;;;;21.13;51.37;96231.28;5098054;28;20095;-43
2022/11/09 10:55:22;;;;;;;10.38;3.00;;;;;;;22.05;49.67;96224.31;5103761;28;20082;-46
2022/11/09 10:58:01;;;;;;;5.50;2.35;;;;;;;22.19;47.35;96221.50;5099303;28;20075;-45
2022/11/09 11:00:31;;;;;;;7.90;2.37;;;;;;;21.94;47.11;96221.53;5103053;28;20098;-48
2022/11/09 11:03:10;;;;;;;5.70;2.20;;;;;;;22.24;47.56;96214.44;5098830;28;20572;-51
2022/11/09 11:05:38;;;;;;;4.07;2.08;;;;;;;22.45;46.88;96218.53;5101993;28;20083;-48
2022/11/09 11:08:25;;;;;;;6.47;2.47;;;;;;;21.89;48.36;96224.91;5106469;28;20535;-44
2022/11/09 11:11:08;;;;;;;6.07;3.17;;;;;;;22.26;48.24;96212.34;5094134;28;20599;-47
2022/11/09 11:14:23;;;;;;;5.40;2.40;;;;;;;22.00;48.33;96209.91;5099369;28;20443;-49
2022/11/09 11:16:52;;;;;;;6.32;3.88;;;;;;;22.91;46.92;96206.34;5108710;28;20118;-43
2022/11/09 11:19:32;;;;;;;4.00;2.20;;;;;;;22.60;47.65;96209.25;5099457;28;20106;-46
2022/11/09 11:22:13;;;;;;;3.63;2.00;;;;;;;22.65;47.09;96209.41;5107925;28;20086;-49
2022/11/09 11:24:42;;;;;;;6.38;2.10;;;;;;;22.75;47.12;96201.63;5106010;28;20748;-48
2022/11/09 11:27:15;;;;;;;4.93;1.90;;;;;;;23.40;45.28;96199.03;5099045;28;20087;-45
2022/11/09 11:29:48;;;;;;;6.20;3.25;;;;;;;23.56;45.94;96196.69;5099378;28;20078;-45
2022/11/09 11:32:18;;;;;;;4.80;2.67;;;;;;;23.41;46.56;96191.75;5100482;28;20511;-44
2022/11/09 11:34:48;;;;;;;4.38;2.28;;;;;;;23.59;46.07;96186.25;5109450;28;20087;-47
2022/11/09 11:37:42;;;;;;;4.60;2.53;;;;;;;23.61;46.02;96192.25;5092897;28;20521;-46
2022/11/09 11:40:17;;;;;;;6.25;2.40;;;;;;;24.30;44.42;96181.66;5103569;28;20084;-48
2022/11/09 11:43:02;;;;;;;4.45;2.38;;;;;;;24.49;42.34;96187.72;5099699;28;20755;-49
2022/11/09 11:45:38;;;;;;;3.17;1.92;;;;;;;24.48;41.95;96177.19;5102628;28;20087;-44